Aérodrome :
LOGIN :

S'inscrire | Disclaimer

   EN    FR    IT 

 










Légende :    VFR   VFR Marginal   IFR   IFR Intensif   IFR Très Intensif
Visi : 
Plafond : 
>= 8 km
>= 3000ft
5 à 8 km
1000 à 3000 ft
1500m à 5 km
500 à 1000 ft
800 à 1500m
200 à 500 ft
< 800m
< 200 ft
Symboles :   Orages  Brouillard  Fortes neiges  Fortes précipitations  Vent > 20 kt
SIGMETs :   Divers  Orages  Givrage  Turbulence  Onde Orograph.  Cendres Volcan.






- Altitude de l'aérodrome : 600 ft
- Code IATA : VIE


LOWW - Vienna Schwechat

DERNIER METAR :
  • 280350Z 32008KT 9999 FEW038 SCT044 17/15 Q1020 NOSIG

METARs EXPIRÉS :
  • 280320Z 30009KT 9999 FEW020 SCT050 17/15 Q1019 NOSIG
  • 280250Z 30008KT 9999 FEW020 16/15 Q1019 NOSIG
  • 280220Z 32006KT 9999 FEW002 BKN026 16/15 Q1019 NOSIG
  • 280150Z 34005KT 9000 FEW002 BKN019 16/15 Q1019 NOSIG
  • 280120Z 36005KT 5000 -RA FEW002 BKN019 16/15 Q1019 NOSIG

TAF TAF LOWW
Valide du 28 à 03h jusqu'au 29 à 09h UTC


280215Z 2803/2909 34010KT 9999 SCT020 TX22/2814Z TN11/2905Z
TEMPO 2803/2806 32004KT -RA BKN008
PROB30
TEMPO 2812/2816 -SHRA
FM281800 VRB02KT CAVOK
TEMPO 2900/2906 1500 MIFG NSC
PROB40
TEMPO 2903/2909 0300 FG VV001



MET'MAP, la Météo Aéronautique d'un coup d'oeil ! - Copyright ORBIFLY Décembre 2007 - Disclaimer

ORBIFLY MET'MAP TEAM :

Programmation & Développement : Alexandra Zaïnal
Sur une idée originale de : Baudouin d'Aumeries
Assistance à la programmation : Marc-Olivier Méhu
Soutien technique & logistique : Manuel Goepfert

Contact : metmap@orbifly.com




SOURCES & CREDITS :

   NOAA